Time;durP1;ratioP1;P1;durP2;ratioP2;P2;SDS_P1;SDS_P2;PMS_P1;PMS_P2;Temp;Humidity;BMP_temperature;BMP_pressure;BME280_temperature;BME280_humidity;BME280_pressure;Samples;Min_cycle;Max_cycle;Signal;HPM_P1;HPM_P2
2022/03/29 00:01:10;;;;;;;;;;;;;;;13.20;41.52;99688.37;4435686;32;20377;-74
2022/03/29 00:03:42;;;;;;;;;;;;;;;13.04;41.62;99688.34;4439712;32;20003;-75
2022/03/29 00:06:09;;;;;;;;;;;;;;;13.09;41.69;99684.91;4444414;32;20758;-74
2022/03/29 00:08:36;;;;;;;;;;;;;;;13.03;41.74;99684.00;4443292;32;20030;-71
2022/03/29 00:11:03;;;;;;;;;;;;;;;12.94;41.69;99686.56;4444078;32;19981;-79
2022/03/29 00:13:30;;;;;;;;;;;;;;;12.71;42.46;99683.00;4444365;32;21002;-83
2022/03/29 00:15:56;;;;;;;;;;;;;;;12.80;42.01;99677.88;4444568;32;19981;-75
2022/03/29 00:18:24;;;;;;;;;;;;;;;12.76;42.20;99666.59;4431014;32;20283;-82
2022/03/29 00:20:50;;;;;;;;;;;;;;;12.79;42.20;99673.50;4444415;32;20030;-78
2022/03/29 00:23:18;;;;;;;;;;;;;;;12.83;42.43;99666.59;4433663;32;19992;-73
2022/03/29 00:25:45;;;;;;;;;;;;;;;12.76;42.18;99660.50;4443784;32;19989;-72
2022/03/29 00:28:12;;;;;;;;;;;;;;;12.80;42.20;99657.09;4430221;32;20002;-76
2022/03/29 00:30:39;;;;;;;;;;;;;;;12.72;42.31;99653.56;4436595;32;19969;-73
2022/03/29 00:33:06;;;;;;;;;;;;;;;12.71;42.42;99649.25;4444413;32;19989;-72
2022/03/29 00:35:32;;;;;;;;;;;;;;;12.68;42.43;99644.03;4444036;32;19997;-71
2022/03/29 00:37:59;;;;;;;;;;;;;;;12.56;42.69;99637.91;4427380;32;20361;-72
2022/03/29 00:40:27;;;;;;;;;;;;;;;12.64;42.69;99637.09;4429319;32;19973;-73
2022/03/29 00:42:53;;;;;;;;;;;;;;;12.70;42.49;99639.69;4402684;32;20464;-72
2022/03/29 00:45:20;;;;;;;;;;;;;;;12.48;42.85;99634.44;4429866;32;19977;-71
2022/03/29 00:47:47;;;;;;;;;;;;;;;12.49;42.86;99637.91;4433020;32;19981;-72
2022/03/29 00:50:14;;;;;;;;;;;;;;;12.44;43.09;99632.66;4443950;32;20018;-71
2022/03/29 00:52:42;;;;;;;;;;;;;;;12.57;42.59;99639.69;4440302;32;19990;-72
2022/03/29 00:55:13;;;;;;;;;;;;;;;12.37;43.44;99630.91;4443019;32;19985;-74
2022/03/29 00:57:40;;;;;;;;;;;;;;;12.62;42.86;99628.44;4443533;32;20368;-72
2022/03/29 01:00:07;;;;;;;;;;;;;;;12.52;43.10;99619.72;4420486;32;20023;-72
2022/03/29 01:02:34;;;;;;;;;;;;;;;12.46;43.00;99610.19;4428156;32;20685;-72
2022/03/29 01:05:01;;;;;;;;;;;;;;;12.46;43.20;99609.31;4416725;32;20024;-77
2022/03/29 01:07:28;;;;;;;;;;;;;;;12.57;42.94;99613.72;4444090;32;19988;-75
2022/03/29 01:09:56;;;;;;;;;;;;;;;12.49;43.06;99601.53;4444585;32;20321;-77
2022/03/29 01:12:24;;;;;;;;;;;;;;;12.47;43.16;99606.72;4438609;32;19977;-72
2022/03/29 01:14:51;;;;;;;;;;;;;;;12.54;42.98;99603.31;4430924;32;19989;-72
2022/03/29 01:20:18;;;;;;;;;;;;;;;12.31;43.22;99604.91;4431872;32;19981;-75
2022/03/29 01:22:46;;;;;;;;;;;;;;;12.36;42.95;99603.22;4431520;32;19993;-71
2022/03/29 01:25:14;;;;;;;;;;;;;;;12.24;43.50;99597.97;4442724;32;19993;-72
2022/03/29 01:27:41;;;;;;;;;;;;;;;12.35;43.28;99593.72;4428511;32;20024;-72
2022/03/29 01:30:08;;;;;;;;;;;;;;;12.25;43.77;99599.69;4414565;32;20011;-73
2022/03/29 01:32:35;;;;;;;;;;;;;;;12.12;43.78;99596.16;4428701;32;19995;-72
2022/03/29 01:35:02;;;;;;;;;;;;;;;12.09;44.01;99599.63;4415040;32;19997;-71
2022/03/29 01:37:29;;;;;;;;;;;;;;;12.16;43.70;99589.28;4427996;32;20004;-72
2022/03/29 01:39:56;;;;;;;;;;;;;;;12.14;43.77;99586.66;4428641;32;20658;-72
2022/03/29 01:42:23;;;;;;;;;;;;;;;12.07;44.05;99583.16;4428592;32;20040;-73
2022/03/29 01:44:50;;;;;;;;;;;;;;;11.99;44.05;99571.88;4428142;32;20315;-72
2022/03/29 01:47:18;;;;;;;;;;;;;;;11.86;44.80;99567.47;4428174;32;20027;-71
2022/03/29 01:49:45;;;;;;;;;;;;;;;11.84;44.63;99561.38;4426620;32;20004;-72
2022/03/29 01:52:12;;;;;;;;;;;;;;;11.97;44.57;99563.22;4428498;32;20759;-72
2022/03/29 01:54:39;;;;;;;;;;;;;;;11.78;44.93;99561.34;4413074;32;20446;-72
2022/03/29 01:57:05;;;;;;;;;;;;;;;11.90;44.53;99561.47;4428018;32;19989;-72
2022/03/29 02:00:30;;;;;;;;;;;;;;;12.00;44.39;99552.88;4436833;32;20750;-72
2022/03/29 02:02:19;;;;;;;;;;;;;;;11.92;44.66;99551.94;4443875;32;19989;-74
2022/03/29 02:04:46;;;;;;;;;;;;;;;11.96;44.65;99551.09;4443657;32;19988;-75
2022/03/29 02:07:13;;;;;;;;;;;;;;;11.99;44.01;99545.94;4443908;32;19981;-72
2022/03/29 02:09:40;;;;;;;;;;;;;;;12.04;44.18;99538.19;4443598;32;20010;-72
2022/03/29 02:12:07;;;;;;;;;;;;;;;12.00;44.58;99539.91;4429831;32;20325;-72
2022/03/29 02:14:34;;;;;;;;;;;;;;;11.74;45.13;99533.63;4443158;32;19989;-72
2022/03/29 02:17:01;;;;;;;;;;;;;;;11.89;44.69;99528.59;4442937;32;20005;-72
2022/03/29 02:19:28;;;;;;;;;;;;;;;11.77;44.63;99536.25;4441993;32;20557;-72
2022/03/29 02:21:55;;;;;;;;;;;;;;;11.93;44.30;99530.31;4443563;32;20891;-71
2022/03/29 02:24:22;;;;;;;;;;;;;;;11.84;44.63;99525.97;4443271;32;20822;-71
2022/03/29 02:26:49;;;;;;;;;;;;;;;11.92;44.64;99525.12;4440800;32;20007;-73
2022/03/29 02:29:16;;;;;;;;;;;;;;;11.86;44.71;99518.19;4443484;32;19978;-71
2022/03/29 02:31:42;;;;;;;;;;;;;;;11.97;44.63;99519.13;4443136;32;19985;-72
2022/03/29 02:34:09;;;;;;;;;;;;;;;11.90;44.68;99526.84;4443388;32;20392;-71
2022/03/29 02:36:36;;;;;;;;;;;;;;;11.87;44.70;99514.75;4443130;32;20025;-71
2022/03/29 02:39:03;;;;;;;;;;;;;;;11.83;44.84;99518.13;4442908;32;20030;-76
2022/03/29 02:41:30;;;;;;;;;;;;;;;11.82;45.01;99516.41;4429102;32;20367;-83
2022/03/29 02:43:57;;;;;;;;;;;;;;;11.87;44.63;99514.75;4443362;32;20314;-72
2022/03/29 02:46:23;;;;;;;;;;;;;;;11.90;44.48;99519.06;4442506;32;19993;-72
2022/03/29 02:48:50;;;;;;;;;;;;;;;11.78;44.83;99519.84;4440437;32;20608;-73
2022/03/29 02:51:17;;;;;;;;;;;;;;;11.88;44.58;99513.87;4442960;32;19997;-72
2022/03/29 02:53:44;;;;;;;;;;;;;;;11.75;44.98;99504.28;4443000;32;20012;-72
2022/03/29 02:56:11;;;;;;;;;;;;;;;11.93;44.51;99509.56;4442964;32;19999;-72
2022/03/29 02:58:38;;;;;;;;;;;;;;;11.66;45.30;99499.03;4442691;32;20026;-72
2022/03/29 03:01:04;;;;;;;;;;;;;;;11.74;44.91;99502.53;4433769;32;19989;-72
2022/03/29 03:03:31;;;;;;;;;;;;;;;11.58;45.30;99502.44;4442248;32;19985;-73
2022/03/29 03:05:58;;;;;;;;;;;;;;;11.49;45.65;99501.53;4443066;32;19985;-76
2022/03/29 03:08:25;;;;;;;;;;;;;;;11.66;45.01;99504.22;4443052;32;20627;-73
2022/03/29 03:10:53;;;;;;;;;;;;;;;11.29;46.04;99503.94;4442531;32;20034;-72
2022/03/29 03:13:19;;;;;;;;;;;;;;;11.62;45.21;99493.81;4448610;32;20368;-72
2022/03/29 03:15:46;;;;;;;;;;;;;;;11.60;45.01;99495.53;4457353;32;19992;-75
2022/03/29 03:18:13;;;;;;;;;;;;;;;11.60;44.87;99505.91;4442654;32;19984;-72
2022/03/29 03:20:40;;;;;;;;;;;;;;;11.50;45.30;99496.34;4457592;32;19981;-72
2022/03/29 03:23:06;;;;;;;;;;;;;;;11.56;45.28;99501.56;4457844;32;19989;-73
2022/03/29 03:25:34;;;;;;;;;;;;;;;11.57;45.13;99495.50;4459427;32;19980;-72
2022/03/29 03:28:01;;;;;;;;;;;;;;;11.57;45.19;99494.66;4460430;32;19980;-72
2022/03/29 03:30:28;;;;;;;;;;;;;;;11.46;45.33;99492.00;4438798;32;19984;-76
2022/03/29 03:32:55;;;;;;;;;;;;;;;11.57;45.12;99495.50;4460729;32;20076;-71
2022/03/29 03:35:22;;;;;;;;;;;;;;;11.44;45.62;99488.50;4460733;32;20042;-70
2022/03/29 03:37:50;;;;;;;;;;;;;;;11.54;45.30;99489.44;4446185;32;20022;-72
2022/03/29 03:40:17;;;;;;;;;;;;;;;11.51;45.18;99479.91;4459323;32;19996;-74
2022/03/29 03:42:44;;;;;;;;;;;;;;;11.38;45.46;99484.16;4460124;32;20985;-72
2022/03/29 03:45:11;;;;;;;;;;;;;;;11.40;45.35;99471.22;4460552;32;20025;-72
2022/03/29 03:47:38;;;;;;;;;;;;;;;11.36;45.60;99479.84;4435570;32;20029;-73
2022/03/29 03:50:06;;;;;;;;;;;;;;;11.30;45.57;99469.44;4457489;32;20020;-73
2022/03/29 03:52:32;;;;;;;;;;;;;;;11.40;45.52;99472.09;4446670;32;19969;-72
2022/03/29 03:55:00;;;;;;;;;;;;;;;11.52;45.03;99476.50;4429259;32;19972;-72
2022/03/29 03:57:26;;;;;;;;;;;;;;;11.41;45.22;99472.94;4412516;32;20464;-73
2022/03/29 03:59:55;;;;;;;;;;;;;;;11.45;45.36;99469.50;4412931;32;19993;-72
2022/03/29 04:02:23;;;;;;;;;;;;;;;11.43;45.59;99475.56;4412814;32;19986;-75
2022/03/29 04:04:51;;;;;;;;;;;;;;;11.36;45.78;99472.06;4414459;32;19981;-76
2022/03/29 04:07:17;;;;;;;;;;;;;;;11.38;45.47;99471.19;4414266;32;20393;-72
2022/03/29 04:09:44;;;;;;;;;;;;;;;11.37;45.47;99473.78;4413841;32;20044;-71
2022/03/29 04:12:11;;;;;;;;;;;;;;;11.35;45.59;99467.72;4413983;32;19997;-71
2022/03/29 04:14:38;;;;;;;;;;;;;;;11.31;45.76;99463.38;4414276;32;20365;-71
2022/03/29 04:17:05;;;;;;;;;;;;;;;11.29;45.92;99457.31;4402253;32;19986;-71
2022/03/29 04:19:32;;;;;;;;;;;;;;;11.22;46.13;99465.91;4422963;32;19990;-75
2022/03/29 04:21:59;;;;;;;;;;;;;;;10.99;46.83;99469.19;4429384;32;20335;-69
2022/03/29 04:24:26;;;;;;;;;;;;;;;11.12;46.62;99470.16;4430993;32;19985;-71
2022/03/29 04:26:53;;;;;;;;;;;;;;;11.04;47.07;99467.50;4444630;32;20026;-72
2022/03/29 04:29:19;;;;;;;;;;;;;;;11.33;46.29;99459.09;4444826;32;20005;-72
2022/03/29 04:31:46;;;;;;;;;;;;;;;11.27;46.79;99469.41;4444693;32;20000;-71
2022/03/29 04:34:13;;;;;;;;;;;;;;;11.20;47.21;99465.00;4445031;32;19992;-72
2022/03/29 04:36:40;;;;;;;;;;;;;;;11.14;47.04;99464.12;4429211;32;19991;-77
2022/03/29 04:39:07;;;;;;;;;;;;;;;11.17;47.24;99451.19;4444848;32;20475;-73
2022/03/29 04:41:34;;;;;;;;;;;;;;;11.28;46.88;99453.00;4429996;32;19999;-73
2022/03/29 04:44:20;;;;;;;;;;;;;;;11.47;46.43;99453.97;4442772;32;20007;-73
2022/03/29 04:46:47;;;;;;;;;;;;;;;11.44;46.76;99452.22;4444406;32;19988;-72
2022/03/29 04:49:14;;;;;;;;;;;;;;;11.48;46.51;99446.19;4443765;32;19992;-74
2022/03/29 04:51:41;;;;;;;;;;;;;;;11.51;46.57;99445.34;4444210;32;20001;-73
2022/03/29 04:54:08;;;;;;;;;;;;;;;11.61;46.14;99445.44;4416745;32;19999;-72
2022/03/29 04:56:42;;;;;;;;;;;;;;;11.57;46.24;99446.25;4435368;32;19985;-72
2022/03/29 04:59:09;;;;;;;;;;;;;;;11.53;46.58;99434.16;4444085;32;20086;-73
2022/03/29 05:01:36;;;;;;;;;;;;;;;11.62;46.21;99436.78;4444365;32;20033;-76
2022/03/29 05:04:04;;;;;;;;;;;;;;;11.72;46.34;99439.44;4441833;32;20063;-75
2022/03/29 05:06:31;;;;;;;;;;;;;;;11.66;46.21;99434.22;4444329;32;20418;-78
2022/03/29 05:08:58;;;;;;;;;;;;;;;11.72;46.02;99426.47;4444241;32;19992;-75
2022/03/29 05:11:24;;;;;;;;;;;;;;;11.67;46.29;99428.16;4429158;32;19993;-77
2022/03/29 05:13:51;;;;;;;;;;;;;;;11.68;46.50;99437.66;4433922;32;20398;-76
2022/03/29 05:16:18;;;;;;;;;;;;;;;11.69;46.41;99436.81;4443700;32;19977;-73
2022/03/29 05:18:45;;;;;;;;;;;;;;;11.59;46.83;99436.78;4443003;32;20001;-76
2022/03/29 05:21:13;;;;;;;;;;;;;;;11.82;46.65;99441.22;4441865;32;20331;-72
2022/03/29 05:23:39;;;;;;;;;;;;;;;11.79;46.59;99438.59;4443959;32;20058;-72
2022/03/29 05:26:06;;;;;;;;;;;;;;;11.91;46.34;99438.69;4443512;32;19980;-72
2022/03/29 05:28:34;;;;;;;;;;;;;;;11.89;46.90;99437.81;4443793;32;19993;-73
2022/03/29 05:31:01;;;;;;;;;;;;;;;12.02;47.06;99444.78;4443030;32;20732;-73
2022/03/29 05:33:28;;;;;;;;;;;;;;;11.90;47.18;99442.16;4443822;32;20321;-75
2022/03/29 05:35:55;;;;;;;;;;;;;;;11.93;47.62;99442.13;4442712;32;20251;-71
2022/03/29 05:38:22;;;;;;;;;;;;;;;12.21;47.19;99437.06;4443775;32;20050;-72
2022/03/29 05:40:48;;;;;;;;;;;;;;;12.43;46.56;99438.84;4443750;32;20003;-73
2022/03/29 05:43:17;;;;;;;;;;;;;;;12.48;46.50;99437.13;4441819;32;20007;-74
2022/03/29 05:48:51;;;;;;;;;;;;;;;12.66;46.32;99445.81;4442426;32;20013;-73
2022/03/29 05:51:16;;;;;;;;;;;;;;;12.94;46.45;99447.56;4428535;32;19996;-71
2022/03/29 05:53:44;;;;;;;;;;;;;;;13.18;45.72;99431.09;4438096;32;20012;-72
2022/03/29 05:56:11;;;;;;;;;;;;;;;13.34;45.51;99439.78;4439123;32;20314;-71
2022/03/29 05:58:38;;;;;;;;;;;;;;;13.53;44.73;99442.31;4443848;32;20036;-71
2022/03/29 06:01:05;;;;;;;;;;;;;;;13.61;44.97;99435.38;4441638;32;19981;-72
2022/03/29 06:03:32;;;;;;;;;;;;;;;13.71;45.05;99442.28;4441788;32;19985;-73
2022/03/29 06:05:59;;;;;;;;;;;;;;;13.98;43.93;99432.66;4441211;32;19999;-73
2022/03/29 06:08:25;;;;;;;;;;;;;;;13.94;43.92;99440.47;4443302;32;19977;-72
2022/03/29 06:10:55;;;;;;;;;;;;;;;14.05;44.46;99436.97;4441657;32;20326;-71
2022/03/29 06:13:22;;;;;;;;;;;;;;;14.17;42.92;99434.31;4443392;32;20036;-73
2022/03/29 06:15:49;;;;;;;;;;;;;;;14.39;43.15;99428.09;4442292;32;20016;-71
2022/03/29 06:18:16;;;;;;;;;;;;;;;14.48;42.21;99432.38;4442808;32;19981;-73
2022/03/29 06:20:46;;;;;;;;;;;;;;;14.75;41.67;99426.16;4443132;32;20048;-73
2022/03/29 06:23:13;;;;;;;;;;;;;;;14.88;41.19;99427.78;4426402;32;20326;-71
2022/03/29 06:25:40;;;;;;;;;;;;;;;14.97;40.75;99425.97;4442982;32;19999;-69
2022/03/29 06:28:07;;;;;;;;;;;;;;;14.94;41.43;99421.66;4440938;32;19997;-71
2022/03/29 06:30:34;;;;;;;;;;;;;;;15.24;40.60;99414.44;4428374;32;19986;-71
2022/03/29 06:33:02;;;;;;;;;;;;;;;15.32;40.79;99413.47;4441243;32;19985;-71
2022/03/29 06:35:30;;;;;;;;;;;;;;;15.40;40.04;99420.34;4443085;32;19961;-71
2022/03/29 06:37:58;;;;;;;;;;;;;;;15.53;39.44;99411.50;4442012;32;20370;-70
2022/03/29 06:40:25;;;;;;;;;;;;;;;15.79;39.05;99408.63;4442357;32;20677;-70
2022/03/29 06:42:52;;;;;;;;;;;;;;;15.94;39.41;99412.81;4442734;32;19985;-71
2022/03/29 06:45:19;;;;;;;;;;;;;;;16.10;39.04;99403.91;4442019;32;20022;-69
2022/03/29 06:47:47;;;;;;;;;;;;;;;16.33;37.49;99405.31;4443128;32;20021;-73
2022/03/29 06:50:14;;;;;;;;;;;;;;;16.53;36.98;99403.28;4441385;32;20023;-72
2022/03/29 06:52:42;;;;;;;;;;;;;;;16.81;36.73;99410.72;4443959;32;19989;-72
2022/03/29 06:55:10;;;;;;;;;;;;;;;16.93;35.84;99398.31;4445276;32;19996;-72
2022/03/29 06:57:37;;;;;;;;;;;;;;;17.07;36.84;99394.59;4441883;32;19991;-74
2022/03/29 07:00:05;;;;;;;;;;;;;;;17.44;35.88;99402.62;4450132;32;20715;-71
2022/03/29 07:02:34;;;;;;;;;;;;;;;17.70;34.95;99406.50;4418919;32;20099;-75
2022/03/29 07:05:01;;;;;;;;;;;;;;;17.76;35.12;99398.53;4451408;32;19973;-72
2022/03/29 07:07:27;;;;;;;;;;;;;;;18.07;33.96;99397.03;4443327;32;19981;-74
2022/03/29 07:12:48;;;;;;;;;;;;;;;18.32;33.30;99393.88;4416930;32;20003;-72
2022/03/29 07:15:16;;;;;;;;;;;;;;;18.48;33.42;99403.09;4451382;32;19988;-73
2022/03/29 07:17:43;;;;;;;;;;;;;;;18.89;33.48;99393.41;4430552;32;19993;-72
2022/03/29 07:20:10;;;;;;;;;;;;;;;19.04;32.13;99395.62;4444424;32;20038;-73
2022/03/29 07:22:37;;;;;;;;;;;;;;;19.38;31.89;99397.38;4410708;32;19993;-73
2022/03/29 07:25:04;;;;;;;;;;;;;;;19.57;30.77;99394.25;4456469;32;20030;-73
2022/03/29 07:27:31;;;;;;;;;;;;;;;19.86;30.64;99398.72;4458431;32;20003;-73
2022/03/29 07:30:00;;;;;;;;;;;;;;;19.81;30.54;99396.19;4432923;32;863767;-75
2022/03/29 07:32:28;;;;;;;;;;;;;;;20.22;29.53;99396.75;4445550;32;20051;-74
2022/03/29 07:34:55;;;;;;;;;;;;;;;20.46;30.62;99396.94;4459501;32;20135;-73
2022/03/29 07:37:23;;;;;;;;;;;;;;;20.59;29.15;99385.13;4460426;32;20011;-72
2022/03/29 07:39:54;;;;;;;;;;;;;;;21.08;28.12;99378.22;4449429;32;20014;-71
2022/03/29 07:42:21;;;;;;;;;;;;;;;21.31;27.76;99383.56;4429252;32;20068;-76
2022/03/29 07:44:50;;;;;;;;;;;;;;;21.44;28.28;99385.78;4432195;32;20008;-71
2022/03/29 07:47:18;;;;;;;;;;;;;;;21.12;28.21;99374.56;4448229;32;20035;-71
2022/03/29 07:49:45;;;;;;;;;;;;;;;21.31;27.77;99375.69;4443572;32;19997;-72
2022/03/29 07:52:36;;;;;;;;;;;;;;;21.40;29.40;99379.78;4441018;32;19988;-72
2022/03/29 07:55:03;;;;;;;;;;;;;;;21.81;28.47;99375.63;4434248;32;19981;-74
2022/03/29 07:57:50;;;;;;;;;;;;;;;21.89;27.29;99377.09;4436079;32;19989;-73
2022/03/29 08:00:32;;;;;;;;;;;;;;;22.00;27.00;99374.94;4458249;32;21106;-72
2022/03/29 08:03:09;;;;;;;;;;;;;;;22.12;26.33;99377.09;4436602;32;20499;-73
2022/03/29 08:05:36;;;;;;;;;;;;;;;22.05;26.82;99378.28;4445505;32;19992;-74
2022/03/29 08:08:03;;;;;;;;;;;;;;;21.95;28.29;99379.50;4445984;32;19973;-73
2022/03/29 08:10:31;;;;;;;;;;;;;;;22.46;26.90;99376.69;4457851;32;20065;-72
2022/03/29 08:12:58;;;;;;;;;;;;;;;22.53;26.30;99366.75;4458303;32;19990;-74
2022/03/29 08:15:26;;;;;;;;;;;;;;;22.49;26.02;99357.22;4460330;32;20314;-73
2022/03/29 08:17:58;;;;;;;;;;;;;;;22.85;25.82;99360.13;4459610;32;20000;-71
2022/03/29 08:20:26;;;;;;;;;;;;;;;23.07;25.33;99364.50;4459419;32;20004;-73
2022/03/29 08:22:55;;;;;;;;;;;;;;;23.12;26.36;99362.56;4456038;32;20391;-74
2022/03/29 08:25:22;;;;;;;;;;;;;;;23.26;26.52;99364.59;4444693;32;19981;-74
2022/03/29 08:27:49;;;;;;;;;;;;;;;23.74;25.04;99361.59;4444816;32;20067;-73
2022/03/29 08:30:16;;;;;;;;;;;;;;;23.51;27.06;99349.38;4455086;32;19977;-73
2022/03/29 08:32:43;;;;;;;;;;;;;;;23.70;25.61;99359.13;4434141;32;19999;-73
2022/03/29 08:35:12;;;;;;;;;;;;;;;23.71;26.25;99347.63;4434709;32;19981;-73
2022/03/29 08:37:39;;;;;;;;;;;;;;;23.78;27.24;99352.59;4459587;32;20026;-72
2022/03/29 08:40:09;;;;;;;;;;;;;;;23.84;23.85;99341.72;4457997;32;20063;-74
2022/03/29 08:42:36;;;;;;;;;;;;;;;24.22;23.32;99346.13;4443832;32;20045;-74
2022/03/29 08:45:07;;;;;;;;;;;;;;;24.30;23.20;99333.41;4458483;32;20018;-73
2022/03/29 08:47:33;;;;;;;;;;;;;;;24.56;22.18;99334.81;4458324;32;20051;-72
2022/03/29 08:50:01;;;;;;;;;;;;;;;24.28;23.64;99335.25;4457459;32;20003;-72
2022/03/29 08:52:28;;;;;;;;;;;;;;;24.20;23.07;99337.44;4459632;32;19994;-73
2022/03/29 08:54:56;;;;;;;;;;;;;;;24.55;23.07;99339.25;4459491;32;20010;-76
2022/03/29 08:57:24;;;;;;;;;;;;;;;24.43;22.32;99329.25;4444944;32;20662;-75
2022/03/29 08:59:51;;;;;;;;;;;;;;;24.13;23.12;99332.44;4460141;32;20000;-73
2022/03/29 09:02:18;;;;;;;;;;;;;;;24.28;24.35;99329.97;4459393;32;20414;-73
2022/03/29 09:04:45;;;;;;;;;;;;;;;24.54;21.65;99326.94;4459826;32;19999;-73
2022/03/29 09:07:12;;;;;;;;;;;;;;;24.36;22.21;99317.22;4458444;32;19985;-73
2022/03/29 09:09:40;;;;;;;;;;;;;;;24.47;22.83;99320.22;4458076;32;20508;-73
2022/03/29 09:12:17;;;;;;;;;;;;;;;24.48;22.17;99318.47;4460011;32;19999;-73
2022/03/29 09:14:54;;;;;;;;;;;;;;;24.79;22.67;99320.41;4458296;32;20045;-74
2022/03/29 09:17:28;;;;;;;;;;;;;;;24.48;21.52;99316.66;4458186;32;20001;-74
2022/03/29 09:19:55;;;;;;;;;;;;;;;24.42;24.65;99311.69;4460118;32;20036;-72
2022/03/29 09:22:37;;;;;;;;;;;;;;;24.67;23.11;99310.47;4458410;32;19992;-73
2022/03/29 09:25:04;;;;;;;;;;;;;;;24.90;21.75;99302.19;4444164;32;20370;-72
2022/03/29 09:27:47;;;;;;;;;;;;;;;24.58;21.42;99307.34;4446756;32;19993;-73
2022/03/29 09:30:14;;;;;;;;;;;;;;;24.66;23.00;99304.28;4445886;32;19989;-74
2022/03/29 09:32:56;;;;;;;;;;;;;;;24.92;22.16;99295.03;4445274;32;19989;-73
2022/03/29 09:35:24;;;;;;;;;;;;;;;24.41;22.93;99294.09;4459786;32;20010;-73
2022/03/29 09:37:51;;;;;;;;;;;;;;;24.07;23.26;99294.84;4450205;32;20408;-73
2022/03/29 09:40:18;;;;;;;;;;;;;;;23.53;23.77;99299.97;4444143;32;20038;-74
2022/03/29 09:43:02;;;;;;;;;;;;;;;23.41;25.36;99295.22;4459509;32;19988;-74
2022/03/29 09:45:40;;;;;;;;;;;;;;;23.52;25.01;99287.69;4458432;32;20334;-74
2022/03/29 09:48:22;;;;;;;;;;;;;;;23.87;24.12;99293.16;4450057;32;20004;-73
2022/03/29 09:50:51;;;;;;;;;;;;;;;24.41;22.46;99290.53;4457852;32;19996;-73
2022/03/29 09:53:37;;;;;;;;;;;;;;;24.53;23.16;99282.88;4459631;32;19977;-74
2022/03/29 09:56:05;;;;;;;;;;;;;;;24.02;24.20;99276.53;4459234;32;19977;-74
2022/03/29 09:58:32;;;;;;;;;;;;;;;23.91;22.49;99284.16;4459045;32;20007;-74
2022/03/29 10:00:58;;;;;;;;;;;;;;;24.14;22.67;99275.94;4459777;32;19996;-75
2022/03/29 10:03:26;;;;;;;;;;;;;;;23.45;23.50;99280.94;4457707;32;19981;-74
2022/03/29 10:06:01;;;;;;;;;;;;;;;23.46;22.93;99272.13;4445209;32;20321;-74
2022/03/29 10:11:18;;;;;;;;;;;;;;;23.42;22.90;99265.25;4458530;32;20034;-71
2022/03/29 10:13:46;;;;;;;;;;;;;;;23.75;24.54;99257.56;4444720;32;20259;-72
2022/03/29 10:16:14;;;;;;;;;;;;;;;24.40;22.84;99254.44;4459241;32;19981;-73
2022/03/29 10:18:42;;;;;;;;;;;;;;;24.11;24.24;99244.38;4435908;32;20023;-73
2022/03/29 10:21:12;;;;;;;;;;;;;;;23.81;23.07;99240.59;4429818;32;19992;-70
2022/03/29 10:23:41;;;;;;;;;;;;;;;23.98;21.74;99232.69;4428798;32;20604;-72
2022/03/29 10:26:07;;;;;;;;;;;;;;;24.08;21.56;99241.88;4443939;32;19989;-73
2022/03/29 10:28:34;;;;;;;;;;;;;;;24.02;21.99;99234.22;4442277;32;20038;-73
2022/03/29 10:31:01;;;;;;;;;;;;;;;24.76;20.27;99225.25;4437642;32;19988;-72
2022/03/29 10:33:33;;;;;;;;;;;;;;;24.79;21.32;99227.75;4443565;32;20323;-74
2022/03/29 10:36:00;;;;;;;;;;;;;;;24.09;19.73;99214.50;4445252;32;19993;-74
2022/03/29 10:38:45;;;;;;;;;;;;;;;23.89;22.17;99217.25;4437962;32;20373;-74
2022/03/29 10:41:28;;;;;;;;;;;;;;;24.23;22.47;99211.19;4434252;32;19995;-71
2022/03/29 10:43:54;;;;;;;;;;;;;;;24.32;20.27;99202.78;4442900;32;20021;-74
2022/03/29 10:46:25;;;;;;;;;;;;;;;24.83;20.85;99208.16;4445623;32;20382;-74
2022/03/29 10:49:11;;;;;;;;;;;;;;;24.85;20.10;99198.31;4431384;32;20360;-73
2022/03/29 10:51:38;;;;;;;;;;;;;;;24.82;21.82;99198.47;4434486;32;21086;-73
2022/03/29 10:54:23;;;;;;;;;;;;;;;25.20;20.47;99198.25;4459484;32;20000;-75
2022/03/29 10:56:57;;;;;;;;;;;;;;;25.27;20.28;99199.63;4460459;32;20000;-73
2022/03/29 10:59:25;;;;;;;;;;;;;;;25.55;17.92;99190.16;4446088;32;20317;-73
2022/03/29 11:02:05;;;;;;;;;;;;;;;25.04;20.76;99182.28;4461158;32;20032;-75
2022/03/29 11:04:33;;;;;;;;;;;;;;;24.96;20.45;99173.94;4460301;32;19992;-74
2022/03/29 11:07:06;;;;;;;;;;;;;;;25.10;18.65;99175.81;4431116;32;19985;-74
2022/03/29 11:09:34;;;;;;;;;;;;;;;25.68;18.88;99164.66;4455412;32;20399;-73
2022/03/29 11:12:01;;;;;;;;;;;;;;;26.07;18.37;99163.34;4459607;32;19984;-74
2022/03/29 11:14:28;;;;;;;;;;;;;;;26.06;17.77;99153.69;4443703;32;20727;-74
2022/03/29 11:16:56;;;;;;;;;;;;;;;26.35;17.59;99146.63;4444945;32;19991;-73
2022/03/29 11:19:44;;;;;;;;;;;;;;;26.13;17.55;99139.09;4456791;32;19993;-73
2022/03/29 11:22:23;;;;;;;;;;;;;;;26.40;16.78;99126.84;4446318;32;19988;-76
2022/03/29 11:24:54;;;;;;;;;;;;;;;25.20;19.21;99135.53;4446143;32;20637;-75
2022/03/29 11:27:24;;;;;;;;;;;;;;;25.60;17.34;99121.84;4429603;32;19985;-75
2022/03/29 11:29:51;;;;;;;;;;;;;;;26.03;16.67;99108.75;4450184;32;20335;-75
2022/03/29 11:32:18;;;;;;;;;;;;;;;25.29;20.57;99118.28;4452092;32;20011;-76
2022/03/29 11:34:45;;;;;;;;;;;;;;;25.26;19.63;99113.16;4456308;32;19986;-76
2022/03/29 11:37:32;;;;;;;;;;;;;;;25.65;18.06;99115.31;4444219;32;20018;-75
2022/03/29 11:40:02;;;;;;;;;;;;;;;25.78;18.03;99104.84;4451140;32;19993;-73
2022/03/29 11:42:42;;;;;;;;;;;;;;;26.34;15.23;99102.47;4430670;32;19993;-75
2022/03/29 11:45:11;;;;;;;;;;;;;;;26.13;15.75;99104.63;4444842;32;19981;-75
2022/03/29 11:47:38;;;;;;;;;;;;;;;25.96;16.03;99098.50;4444580;32;19982;-73
2022/03/29 11:50:05;;;;;;;;;;;;;;;25.82;16.35;99092.34;4450857;32;20285;-75
2022/03/29 11:52:33;;;;;;;;;;;;;;;25.98;16.17;99091.34;4429892;32;20314;-75
2022/03/29 11:55:00;;;;;;;;;;;;;;;26.50;14.86;99084.69;4452464;32;19989;-75
2022/03/29 11:57:28;;;;;;;;;;;;;;;26.15;16.95;99076.22;4439093;32;20186;-73
2022/03/29 11:59:56;;;;;;;;;;;;;;;26.17;16.75;99076.97;4436599;32;19985;-73
2022/03/29 12:02:25;;;;;;;;;;;;;;;26.39;15.52;99069.41;4444618;32;19984;-74
2022/03/29 12:04:53;;;;;;;;;;;;;;;26.18;18.28;99066.25;4430128;32;19989;-75
2022/03/29 12:07:35;;;;;;;;;;;;;;;26.53;15.88;99059.78;4444238;32;20056;-74
2022/03/29 12:10:02;;;;;;;;;;;;;;;26.48;15.44;99064.47;4443495;32;19989;-72
2022/03/29 12:12:29;;;;;;;;;;;;;;;26.35;16.02;99061.72;4417832;32;19993;-74
2022/03/29 12:15:00;;;;;;;;;;;;;;;26.15;16.18;99063.78;4444355;32;19985;-74
2022/03/29 12:17:27;;;;;;;;;;;;;;;26.57;17.18;99066.59;4428682;32;19974;-75
2022/03/29 12:19:55;;;;;;;;;;;;;;;26.08;16.25;99065.13;4427761;32;19977;-74
2022/03/29 12:22:25;;;;;;;;;;;;;;;26.18;16.41;99049.50;4444086;32;20010;-72
2022/03/29 12:24:55;;;;;;;;;;;;;;;26.35;15.59;99046.66;4459543;32;19988;-72
2022/03/29 12:27:22;;;;;;;;;;;;;;;26.32;14.83;99045.97;4458671;32;20353;-73
2022/03/29 12:29:58;;;;;;;;;;;;;;;25.90;15.90;99035.22;4460258;32;19993;-72
2022/03/29 12:32:25;;;;;;;;;;;;;;;25.54;16.95;99037.38;4444589;32;20341;-73
2022/03/29 12:34:59;;;;;;;;;;;;;;;25.68;16.16;99034.78;4459914;32;20731;-72
2022/03/29 12:37:27;;;;;;;;;;;;;;;25.54;18.20;99038.25;4444515;32;20005;-73
2022/03/29 12:39:55;;;;;;;;;;;;;;;25.85;16.81;99032.03;4458282;32;19981;-73
2022/03/29 12:42:21;;;;;;;;;;;;;;;26.06;15.98;99023.72;4459454;32;20000;-72
2022/03/29 12:44:55;;;;;;;;;;;;;;;26.20;15.72;99016.63;4459482;32;20074;-72
2022/03/29 12:47:24;;;;;;;;;;;;;;;26.13;15.44;99009.13;4458922;32;20052;-73
2022/03/29 12:49:51;;;;;;;;;;;;;;;25.78;18.08;99009.41;4458799;32;20587;-74
2022/03/29 12:52:18;;;;;;;;;;;;;;;25.79;17.02;99005.84;4445454;32;20393;-73
2022/03/29 12:54:46;;;;;;;;;;;;;;;25.88;15.83;99005.31;4459494;32;19981;-72
2022/03/29 12:57:18;;;;;;;;;;;;;;;25.92;15.87;99001.53;4456952;32;20634;-72
2022/03/29 12:59:45;;;;;;;;;;;;;;;25.95;15.99;98995.19;4457290;32;20329;-73
2022/03/29 13:02:12;;;;;;;;;;;;;;;26.19;15.34;98991.03;4457410;32;19996;-73
2022/03/29 13:04:41;;;;;;;;;;;;;;;25.90;16.31;98982.19;4459790;32;19988;-73
2022/03/29 13:07:08;;;;;;;;;;;;;;;25.99;15.24;98980.78;4459304;32;19973;-73